Moran, Iowa
Current Conditions -  °F | °C
As of 5:55 AM on Friday 28 Nov 2014 (Local Time) from KPRO Reporting Station
Clear Clear  
Wind Chill:   Ceiling: Unl
Heat Index: 19°   Visibility: 10mi
Dew Point: 17°   Wind: 13mph
Humidity: 91%   Direction: 140°SE
Pressure: 29.99"   Gusts: NA
Location:  41.8164°N, 93.8864°W
Report Text: KPRO 281155Z AUTO 14011KT 10SM CLR M07/M08 A2999 RMK AO2 T10731085 11073 21107
Loading
Personal Weather Stations






























Interactive Weather Map New forecast layout! Learn more

10-Day Weather Forecast

Advertisements
Track Severe Weather on mobile